Terminal Aerodrome Forecast
Issued by NWS Pocatello, ID

Home | Current Version | Previous Version | Text Only | Print | Product List | Glossary On
Versions: 1 2 3 4 5 6 7 8 9 10 11 12 13 14 15 16 17 18
000
FTUS45 KPIH 281700
TAFPIH
TAF
KPIH 281720Z 2818/2918 24014G25KT P6SM OVC025
      TEMPO 2819/2823 OVC015
     FM290100 21010KT P6SM -SN OVC025
      TEMPO 2901/2905 3SM -SN OVC015
     FM291200 VRB05KT 6SM -SN OVC010=

USA.gov is the U.S. government's official web portal to all federal, state and local government web resources and services.